KBLI

Bellingham International Airport

Bellingham, Washington, USA
METAR KBLI 151853Z 18007KT 5SM -RA BR FEW006 OVC011 05/04 A3019 RMK AO2 SLP231 P0003 T00500044
Observed Flight Rules
Dec-15 @ 18:53 UTC (50 minutes ago) Marginal Visual Flight Rules
Wind Visibility Clouds Conditions
180° at 7 knots 5 miles
  • Few at 600' AGL
  • Overcast at 1,100' AGL
  • Light Rain
  • Mist
Temperatures Readings Precipitation
Current 5°C / 41°F
Dewpoint 4°C / 39°F
Humidity 93%
Altimeter 30.19" Hg
Pressure 1023.1 hPa
Elevation 50
Current Rain 0.03
METAR KBLI 151853Z 18007KT 5SM -RA BR FEW006 OVC011 05/04 A3019 RMK AO2 SLP231 P0003 T00500044
Observed Flight Rules
Dec-15 @ 18:53 UTC
(50 minutes ago)
MVFR
Wind Visibility
180° at 7 knots 5 miles
Clouds
  • Few at 600' AGL
  • Overcast at 1,100' AGL
Conditions
  • Light Rain
  • Mist
Temperature Dewpoint
5°C / 41°F 4°C / 39°F
Humidity Altimeter Pressure
93% 30.19" Hg 1023.1 hPa
Current Rain
0.03